createdAt,value
2023-05-04T00:00:20.915Z,17.75
2023-05-04T00:03:07.910Z,15.40
2023-05-04T00:05:35.161Z,17.35
2023-05-04T00:08:02.097Z,16.17
2023-05-04T00:10:29.350Z,17.40
2023-05-04T00:12:56.208Z,17.05
2023-05-04T00:15:23.942Z,17.52
2023-05-04T00:17:50.873Z,18.60
2023-05-04T00:20:18.373Z,17.85
2023-05-04T00:22:45.511Z,19.02
2023-05-04T00:25:12.773Z,19.10
2023-05-04T00:27:39.732Z,19.40
2023-05-04T00:30:07.642Z,18.60
2023-05-04T00:32:34.549Z,18.88
2023-05-04T00:35:01.823Z,19.05
2023-05-04T00:37:28.708Z,18.98
2023-05-04T00:39:55.861Z,17.30
2023-05-04T00:42:22.697Z,19.67
2023-05-04T00:44:49.791Z,19.33
2023-05-04T00:47:17.049Z,18.73
2023-05-04T00:49:44.457Z,19.33
2023-05-04T00:52:14.524Z,20.88
2023-05-04T00:54:43.352Z,20.48
2023-05-04T00:57:10.272Z,20.20
2023-05-04T00:59:37.449Z,21.45
2023-05-04T01:02:04.328Z,20.98
2023-05-04T01:04:31.671Z,20.25
2023-05-04T01:07:10.175Z,20.95
2023-05-04T01:09:49.919Z,21.02
2023-05-04T01:12:41.181Z,21.58
2023-05-04T01:15:09.661Z,21.65
2023-05-04T01:17:36.744Z,20.77
2023-05-04T01:20:04.704Z,21.13
2023-05-04T01:22:32.032Z,22.10
2023-05-04T01:24:59.327Z,22.52
2023-05-04T01:27:59.735Z,23.00
2023-05-04T01:30:36.078Z,23.73
2023-05-04T01:33:04.402Z,22.95
2023-05-04T01:35:31.932Z,21.88
2023-05-04T01:37:59.845Z,21.33
2023-05-04T01:40:27.033Z,21.05
2023-05-04T01:42:53.887Z,19.60
2023-05-04T01:45:21.581Z,20.48
2023-05-04T01:47:48.957Z,19.55
2023-05-04T01:50:16.243Z,19.13
2023-05-04T01:52:43.110Z,17.88
2023-05-04T01:55:10.372Z,18.55
2023-05-04T01:57:37.256Z,19.42
2023-05-04T02:00:04.888Z,18.23
2023-05-04T02:02:32.132Z,18.13
2023-05-04T02:04:59.476Z,17.73
2023-05-04T02:07:26.652Z,16.48
2023-05-04T02:09:53.838Z,18.58
2023-05-04T02:12:20.731Z,18.80
2023-05-04T02:14:47.835Z,17.88
2023-05-04T02:17:14.696Z,18.50
2023-05-04T02:19:41.854Z,17.27
2023-05-04T02:22:08.757Z,18.05
2023-05-04T02:24:36.049Z,18.35
2023-05-04T02:27:03.014Z,18.02
2023-05-04T02:29:30.336Z,17.80
2023-05-04T02:31:57.346Z,17.65
2023-05-04T02:34:24.558Z,17.88
2023-05-04T02:36:51.419Z,17.27
2023-05-04T02:39:18.628Z,16.15
2023-05-04T02:41:45.494Z,18.08
2023-05-04T02:44:12.742Z,17.98
2023-05-04T02:46:39.582Z,17.05
2023-05-04T02:49:08.099Z,16.90
2023-05-04T02:51:35.143Z,15.55
2023-05-04T02:54:02.304Z,15.95
2023-05-04T02:56:29.124Z,17.35
2023-05-04T02:58:56.290Z,16.23
2023-05-04T03:01:23.112Z,15.85
2023-05-04T03:03:50.366Z,16.02
2023-05-04T03:06:17.245Z,14.48
2023-05-04T03:08:44.453Z,16.47
2023-05-04T03:11:11.340Z,15.23
2023-05-04T03:13:38.475Z,16.67
2023-05-04T03:16:05.829Z,17.88
2023-05-04T03:21:17.466Z,18.77
2023-05-04T03:23:44.642Z,21.17
2023-05-04T03:26:11.516Z,20.33
2023-05-04T03:28:38.660Z,19.17
2023-05-04T03:31:05.548Z,18.20
2023-05-04T03:33:32.692Z,18.70
2023-05-04T03:35:59.547Z,18.00
2023-05-04T03:38:26.945Z,19.80
2023-05-04T03:40:53.817Z,22.00
2023-05-04T03:43:20.928Z,25.38
2023-05-04T03:45:47.813Z,19.45
2023-05-04T03:48:15.022Z,17.92
2023-05-04T03:50:41.883Z,19.35
2023-05-04T03:53:09.073Z,18.98
2023-05-04T03:55:36.119Z,18.45
2023-05-04T03:58:03.823Z,18.80
2023-05-04T04:00:30.712Z,17.92
2023-05-04T04:02:57.977Z,17.58
2023-05-04T04:05:24.920Z,17.38
2023-05-04T04:07:52.130Z,17.60
2023-05-04T04:10:19.056Z,16.55
2023-05-04T04:12:46.187Z,16.25
2023-05-04T04:15:13.038Z,15.43
2023-05-04T04:17:40.388Z,14.02
2023-05-04T04:20:08.071Z,14.82
2023-05-04T04:22:36.324Z,14.63
2023-05-04T04:25:03.486Z,13.55
2023-05-04T04:27:31.051Z,14.60
2023-05-04T04:29:57.914Z,15.43
2023-05-04T04:32:25.385Z,16.67
2023-05-04T04:34:52.237Z,15.50
2023-05-04T04:37:19.392Z,14.93
2023-05-04T04:39:46.280Z,14.25
2023-05-04T04:42:13.631Z,11.70
2023-05-04T04:44:40.951Z,12.35
2023-05-04T04:47:08.244Z,12.20
2023-05-04T04:49:35.117Z,13.05
2023-05-04T04:52:02.921Z,12.85
2023-05-04T04:54:29.785Z,12.95
2023-05-04T04:56:57.082Z,13.68
2023-05-04T04:59:24.968Z,13.10
2023-05-04T05:01:52.122Z,12.93
2023-05-04T05:04:20.064Z,13.00
2023-05-04T05:06:47.833Z,12.45
2023-05-04T05:09:14.781Z,12.55
2023-05-04T05:11:41.945Z,11.90
2023-05-04T05:14:08.822Z,11.27
2023-05-04T05:16:35.997Z,10.82
2023-05-04T05:19:03.566Z,11.82
2023-05-04T05:21:30.725Z,11.18
2023-05-04T05:23:57.649Z,11.13
2023-05-04T05:26:24.940Z,11.15
2023-05-04T05:28:52.127Z,11.15
2023-05-04T05:31:19.312Z,10.90
2023-05-04T05:33:46.184Z,11.00
2023-05-04T05:36:14.605Z,10.55
2023-05-04T05:38:41.436Z,11.43
2023-05-04T05:41:09.950Z,10.70
2023-05-04T05:43:38.736Z,11.50
2023-05-04T05:46:06.635Z,11.00
2023-05-04T05:48:33.874Z,11.30
2023-05-04T05:51:01.095Z,8.95
2023-05-04T05:53:28.076Z,9.43
2023-05-04T05:55:55.170Z,9.98
2023-05-04T05:58:22.086Z,9.73
2023-05-04T06:00:49.285Z,10.30
2023-05-04T06:03:16.252Z,9.98
2023-05-04T06:05:43.494Z,9.98
2023-05-04T06:08:10.337Z,8.90
2023-05-04T06:10:37.550Z,10.35
2023-05-04T06:13:04.471Z,8.77
2023-05-04T06:15:31.592Z,8.57
2023-05-04T06:17:58.550Z,8.02
2023-05-04T06:20:25.850Z,7.57
2023-05-04T06:22:52.753Z,7.40
2023-05-04T06:25:19.875Z,6.82
2023-05-04T06:27:46.775Z,7.70
2023-05-04T06:30:15.066Z,7.70
2023-05-04T06:32:42.009Z,7.55
2023-05-04T06:35:09.547Z,7.60
2023-05-04T06:37:36.404Z,7.43
2023-05-04T06:40:05.321Z,8.43
2023-05-04T06:42:32.289Z,7.40
2023-05-04T06:44:59.465Z,7.85
2023-05-04T06:47:26.410Z,7.55
2023-05-04T06:49:53.607Z,8.10
2023-05-04T06:52:20.458Z,7.68
2023-05-04T06:54:47.627Z,6.35
2023-05-04T06:57:15.054Z,7.35
2023-05-04T06:59:42.248Z,7.35
2023-05-04T07:02:09.174Z,8.07
2023-05-04T07:04:37.254Z,7.03
2023-05-04T07:07:04.152Z,6.90
2023-05-04T07:09:31.281Z,6.00
2023-05-04T07:11:58.163Z,5.75
2023-05-04T07:14:25.297Z,5.25
2023-05-04T07:16:52.195Z,5.43
2023-05-04T07:19:19.420Z,5.65
2023-05-04T07:21:47.470Z,6.65
2023-05-04T07:24:14.858Z,6.97
2023-05-04T07:26:41.696Z,7.18
2023-05-04T07:29:09.561Z,7.38
2023-05-04T07:31:36.616Z,8.00
2023-05-04T07:34:03.952Z,7.43
2023-05-04T07:36:35.483Z,6.75
2023-05-04T07:39:03.160Z,6.70
2023-05-04T07:41:30.486Z,8.93
2023-05-04T07:43:57.635Z,11.30
2023-05-04T07:46:24.552Z,7.07
2023-05-04T07:48:51.864Z,6.75
2023-05-04T07:51:18.761Z,6.55
2023-05-04T07:53:45.899Z,9.85
2023-05-04T07:56:13.674Z,20.17
2023-05-04T07:58:41.468Z,7.68
2023-05-04T08:01:08.476Z,6.82
2023-05-04T08:03:36.602Z,8.43
2023-05-04T08:06:03.678Z,6.75
2023-05-04T08:08:30.995Z,6.60
2023-05-04T08:11:11.703Z,7.53
2023-05-04T08:13:46.456Z,20.63
2023-05-04T08:16:13.334Z,7.70
2023-05-04T08:18:40.564Z,6.25
2023-05-04T08:21:07.617Z,34.83
2023-05-04T08:23:34.984Z,13.05
2023-05-04T08:26:03.471Z,5.53
2023-05-04T08:28:31.320Z,5.57
2023-05-04T08:30:58.170Z,5.43
2023-05-04T08:33:25.391Z,6.00
2023-05-04T08:35:52.316Z,5.82
2023-05-04T08:38:19.472Z,5.53
2023-05-04T08:40:47.128Z,7.00
2023-05-04T08:43:15.055Z,5.70
2023-05-04T08:45:42.278Z,6.50
2023-05-04T08:48:10.065Z,21.15
2023-05-04T08:50:38.253Z,9.70
2023-05-04T08:53:11.413Z,4.80
2023-05-04T08:55:39.679Z,4.68
2023-05-04T08:58:11.146Z,5.38
2023-05-04T09:00:39.337Z,4.82
2023-05-04T09:03:07.791Z,5.28
2023-05-04T09:05:36.163Z,5.28
2023-05-04T09:08:03.395Z,5.13
2023-05-04T09:10:30.965Z,4.25
2023-05-04T09:12:58.205Z,4.15
2023-05-04T09:15:25.138Z,3.75
2023-05-04T09:18:03.308Z,4.10
2023-05-04T09:20:31.241Z,3.35
2023-05-04T09:23:07.415Z,2.70
2023-05-04T09:25:35.509Z,3.17
2023-05-04T09:28:02.668Z,3.78
2023-05-04T09:30:29.521Z,4.10
2023-05-04T09:32:57.355Z,5.40
2023-05-04T09:35:33.455Z,3.88
2023-05-04T09:38:01.688Z,3.28
2023-05-04T09:40:40.984Z,2.85
2023-05-04T09:43:09.597Z,3.20
2023-05-04T09:45:40.333Z,3.47
2023-05-04T09:48:20.598Z,3.58
2023-05-04T09:50:57.751Z,2.88
2023-05-04T09:53:26.113Z,2.60
2023-05-04T09:56:03.901Z,2.53
2023-05-04T09:58:33.231Z,2.50
2023-05-04T10:01:03.855Z,2.60
2023-05-04T10:03:32.045Z,2.30
2023-05-04T10:06:00.556Z,2.40
2023-05-04T10:10:54.817Z,2.45
2023-05-04T10:13:22.064Z,3.50
2023-05-04T10:16:10.222Z,2.88
2023-05-04T10:19:01.942Z,2.90
2023-05-04T10:21:47.644Z,2.35
2023-05-04T10:24:41.010Z,2.63
2023-05-04T10:27:16.280Z,2.30
2023-05-04T10:29:49.475Z,2.47
2023-05-04T10:32:21.324Z,2.45
2023-05-04T10:34:49.200Z,2.88
2023-05-04T10:37:20.488Z,2.63
2023-05-04T10:39:54.536Z,2.85
2023-05-04T10:42:22.278Z,2.60
2023-05-04T10:44:55.227Z,2.53
2023-05-04T10:47:33.002Z,2.38
2023-05-04T10:50:08.556Z,2.57
2023-05-04T10:52:49.342Z,2.95
2023-05-04T10:55:17.489Z,2.40
2023-05-04T10:57:57.258Z,2.65
2023-05-04T11:00:36.420Z,2.30
2023-05-04T11:05:43.322Z,2.30
2023-05-04T11:08:26.558Z,3.03
2023-05-04T11:11:07.846Z,2.42
2023-05-04T11:13:35.935Z,3.38
2023-05-04T11:16:03.172Z,3.10
2023-05-04T11:18:32.050Z,2.70
2023-05-04T11:20:59.585Z,2.50
2023-05-04T11:23:27.380Z,2.60
2023-05-04T11:25:55.072Z,2.23
2023-05-04T11:28:38.324Z,2.47
2023-05-04T11:31:16.208Z,2.83
2023-05-04T11:33:50.420Z,3.25
2023-05-04T11:36:18.222Z,2.50
2023-05-04T11:38:45.265Z,2.05
2023-05-04T11:41:12.668Z,2.15
2023-05-04T11:43:42.466Z,2.00
2023-05-04T11:46:11.533Z,2.40
2023-05-04T11:48:39.180Z,2.63
2023-05-04T11:51:06.977Z,2.35
2023-05-04T11:53:41.758Z,3.97
2023-05-04T11:56:09.843Z,2.60
2023-05-04T11:58:37.648Z,2.35
2023-05-04T12:01:05.157Z,2.38
2023-05-04T12:03:50.911Z,2.47
2023-05-04T12:06:30.489Z,3.80
2023-05-04T12:09:06.235Z,2.53
2023-05-04T12:11:34.840Z,2.85
2023-05-04T12:14:16.350Z,3.25
2023-05-04T12:16:54.203Z,2.65
2023-05-04T12:19:21.153Z,2.75
2023-05-04T12:21:53.377Z,2.67
2023-05-04T12:24:24.287Z,2.10
2023-05-04T12:26:51.612Z,2.50
2023-05-04T12:29:18.487Z,2.70
2023-05-04T12:31:45.782Z,2.40
2023-05-04T12:34:12.673Z,3.92
2023-05-04T12:36:39.960Z,5.00
2023-05-04T12:39:06.856Z,2.50
2023-05-04T12:41:34.075Z,2.90
2023-05-04T12:44:00.955Z,2.53
2023-05-04T12:46:28.098Z,3.50
2023-05-04T12:48:55.027Z,3.20
2023-05-04T12:51:22.201Z,2.38
2023-05-04T12:53:49.241Z,3.22
2023-05-04T12:56:16.590Z,2.45
2023-05-04T12:58:43.429Z,2.45
2023-05-04T13:01:10.796Z,2.30
2023-05-04T13:03:37.729Z,2.40
2023-05-04T13:06:06.011Z,2.75
2023-05-04T13:08:33.784Z,2.67
2023-05-04T13:11:01.015Z,3.17
2023-05-04T13:13:29.635Z,2.65
2023-05-04T13:18:27.630Z,3.13
2023-05-04T13:20:56.166Z,2.75
2023-05-04T13:23:23.646Z,2.70
2023-05-04T13:25:51.247Z,3.03
2023-05-04T13:28:18.282Z,3.08
2023-05-04T13:30:45.401Z,2.85
2023-05-04T13:33:25.054Z,2.50
2023-05-04T13:36:02.001Z,3.50
2023-05-04T13:38:29.143Z,2.30
2023-05-04T13:40:56.562Z,2.50
2023-05-04T13:43:23.859Z,2.78
2023-05-04T13:45:51.369Z,2.83
2023-05-04T13:48:18.273Z,2.70
2023-05-04T13:50:45.445Z,2.70
2023-05-04T13:53:12.646Z,2.67
2023-05-04T13:55:39.896Z,2.55
2023-05-04T13:58:06.815Z,3.35
2023-05-04T14:00:34.055Z,2.70
2023-05-04T14:03:01.041Z,2.60
2023-05-04T14:05:28.314Z,2.92
2023-05-04T14:07:55.240Z,3.28
2023-05-04T14:10:22.550Z,3.10
2023-05-04T14:12:49.577Z,2.80
2023-05-04T14:15:17.197Z,2.38
2023-05-04T14:17:44.062Z,2.42
2023-05-04T14:20:11.702Z,3.15
2023-05-04T14:22:41.294Z,2.50
2023-05-04T14:25:09.157Z,2.50
2023-05-04T14:27:36.362Z,4.75
2023-05-04T14:30:04.484Z,3.25
2023-05-04T14:32:31.363Z,2.85
2023-05-04T14:35:08.870Z,2.58
2023-05-04T14:37:40.547Z,4.53
2023-05-04T14:40:10.235Z,4.90
2023-05-04T14:42:37.468Z,3.97
2023-05-04T14:45:06.482Z,2.60
2023-05-04T14:47:34.146Z,3.13
2023-05-04T14:50:02.358Z,3.10
2023-05-04T14:52:29.393Z,2.83
2023-05-04T14:54:56.610Z,3.58
2023-05-04T14:57:23.518Z,2.90
2023-05-04T14:59:51.239Z,2.22
2023-05-04T15:02:19.326Z,2.40
2023-05-04T15:04:47.222Z,4.88
2023-05-04T15:07:20.563Z,4.18
2023-05-04T15:09:47.856Z,4.65
2023-05-04T15:12:14.773Z,3.65
2023-05-04T15:14:41.948Z,3.72
2023-05-04T15:17:08.888Z,2.95
2023-05-04T15:19:39.485Z,3.10
2023-05-04T15:22:07.034Z,4.07
2023-05-04T15:24:34.213Z,2.72
2023-05-04T15:27:02.078Z,3.95
2023-05-04T15:29:29.551Z,4.23
2023-05-04T15:31:56.627Z,2.25
2023-05-04T15:34:23.892Z,3.08
2023-05-04T15:36:50.731Z,2.67
2023-05-04T15:39:17.930Z,4.40
2023-05-04T15:41:44.781Z,3.58
2023-05-04T15:44:11.952Z,2.60
2023-05-04T15:46:38.874Z,2.42
2023-05-04T15:49:06.247Z,2.97
2023-05-04T15:51:33.566Z,2.33
2023-05-04T15:54:01.086Z,2.55
2023-05-04T15:56:28.211Z,3.30
2023-05-04T15:58:55.533Z,2.40
2023-05-04T16:01:22.415Z,2.53
2023-05-04T16:03:49.706Z,2.70
2023-05-04T16:06:17.661Z,2.67
2023-05-04T16:08:45.328Z,2.85
2023-05-04T16:11:12.195Z,2.33
2023-05-04T16:13:39.468Z,2.95
2023-05-04T16:16:06.770Z,2.50
2023-05-04T16:18:33.973Z,2.38
2023-05-04T16:21:01.029Z,2.95
2023-05-04T16:23:28.437Z,3.38
2023-05-04T16:25:55.328Z,2.90
2023-05-04T16:28:22.570Z,3.15
2023-05-04T16:30:49.844Z,3.05
2023-05-04T16:33:17.371Z,2.78
2023-05-04T16:35:44.334Z,3.35
2023-05-04T16:38:13.305Z,2.67
2023-05-04T16:40:42.027Z,2.80
2023-05-04T16:43:10.561Z,3.55
2023-05-04T16:45:38.367Z,3.85
2023-05-04T16:48:06.370Z,4.10
2023-05-04T16:50:33.765Z,3.45
2023-05-04T16:53:00.686Z,4.03
2023-05-04T16:55:27.917Z,3.45
2023-05-04T16:57:58.360Z,3.22
2023-05-04T17:00:25.990Z,5.10
2023-05-04T17:02:52.963Z,3.90
2023-05-04T17:05:21.055Z,4.85
2023-05-04T17:07:48.294Z,4.03
2023-05-04T17:10:15.537Z,4.65
2023-05-04T17:12:42.705Z,3.75
2023-05-04T17:15:10.956Z,4.50
2023-05-04T17:17:38.076Z,4.60
2023-05-04T17:20:06.494Z,3.92
2023-05-04T17:22:33.619Z,4.10
2023-05-04T17:25:00.868Z,4.55
2023-05-04T17:27:27.744Z,3.85
2023-05-04T17:29:54.872Z,4.43
2023-05-04T17:32:22.027Z,4.20
2023-05-04T17:34:49.241Z,4.18
2023-05-04T17:37:16.098Z,4.07
2023-05-04T17:39:43.308Z,3.85
2023-05-04T17:42:12.274Z,4.18
2023-05-04T17:44:39.490Z,5.28
2023-05-04T17:47:06.513Z,5.05
2023-05-04T17:49:33.824Z,5.05
2023-05-04T17:52:01.514Z,4.15
2023-05-04T17:54:28.931Z,10.07
2023-05-04T17:56:55.867Z,9.15
2023-05-04T17:59:23.170Z,5.20
2023-05-04T18:01:50.167Z,7.88
2023-05-04T18:04:17.355Z,6.75
2023-05-04T18:06:44.152Z,6.10
2023-05-04T18:09:11.878Z,5.63
2023-05-04T18:11:38.734Z,5.72
2023-05-04T18:14:06.033Z,4.35
2023-05-04T18:16:36.156Z,4.32
2023-05-04T18:19:03.401Z,4.22
2023-05-04T18:21:30.336Z,4.10
2023-05-04T18:23:57.479Z,5.78
2023-05-04T18:26:24.385Z,6.32
2023-05-04T18:28:51.908Z,6.20
2023-05-04T18:31:19.171Z,8.02
2023-05-04T18:33:46.757Z,11.75
2023-05-04T18:36:13.873Z,12.88
2023-05-04T18:38:41.167Z,13.38
2023-05-04T18:41:08.097Z,13.40
2023-05-04T18:43:35.230Z,23.13
2023-05-04T18:46:08.560Z,22.70
2023-05-04T18:48:35.757Z,14.25
2023-05-04T18:51:03.262Z,9.30
2023-05-04T18:53:30.917Z,12.00
2023-05-04T18:56:04.606Z,10.52
2023-05-04T18:58:32.168Z,15.05
2023-05-04T19:00:59.410Z,12.25
2023-05-04T19:03:26.876Z,21.10
2023-05-04T19:05:54.138Z,45.78
2023-05-04T19:08:21.465Z,43.83
2023-05-04T19:10:49.456Z,39.25
2023-05-04T19:13:17.002Z,39.38
2023-05-04T19:15:44.079Z,45.67
2023-05-04T19:18:12.030Z,40.42
2023-05-04T19:20:39.885Z,33.67
2023-05-04T19:23:07.156Z,36.25
2023-05-04T19:25:35.010Z,34.08
2023-05-04T19:28:08.622Z,32.70
2023-05-04T19:30:39.738Z,31.85
2023-05-04T19:33:08.536Z,36.30
2023-05-04T19:35:36.014Z,31.35
2023-05-04T19:38:06.284Z,33.38
2023-05-04T19:40:34.108Z,22.02
2023-05-04T19:43:01.332Z,20.88
2023-05-04T19:45:28.153Z,28.05
2023-05-04T19:47:55.344Z,24.23
2023-05-04T19:50:22.311Z,46.08
2023-05-04T19:52:50.420Z,61.83
2023-05-04T19:55:17.489Z,66.17
2023-05-04T19:57:44.717Z,64.65
2023-05-04T20:00:12.771Z,41.17
2023-05-04T20:02:40.088Z,32.45
2023-05-04T20:05:07.546Z,25.85
2023-05-04T20:07:34.839Z,23.87
2023-05-04T20:10:01.778Z,25.05
2023-05-04T20:12:29.976Z,22.90
2023-05-04T20:14:56.924Z,22.00
2023-05-04T20:17:24.156Z,19.88
2023-05-04T20:19:51.100Z,20.45
2023-05-04T20:22:18.353Z,25.50
2023-05-04T20:24:45.299Z,24.73
2023-05-04T20:27:12.916Z,22.23
2023-05-04T20:29:39.779Z,23.67
2023-05-04T20:32:08.127Z,25.90
2023-05-04T20:34:35.878Z,32.50
2023-05-04T20:37:03.011Z,30.10
2023-05-04T20:39:29.932Z,21.37
2023-05-04T20:41:58.113Z,20.93
2023-05-04T20:44:25.240Z,20.07
2023-05-04T20:46:52.372Z,20.03
2023-05-04T20:49:19.226Z,20.90
2023-05-04T20:51:46.467Z,22.90
2023-05-04T20:54:13.499Z,22.93
2023-05-04T20:56:40.676Z,22.10
2023-05-04T20:59:08.212Z,23.43
2023-05-04T21:01:35.402Z,20.50
2023-05-04T21:04:02.379Z,21.40
2023-05-04T21:06:29.740Z,23.33
2023-05-04T21:08:57.266Z,23.65
2023-05-04T21:11:24.508Z,23.70
2023-05-04T21:13:51.328Z,23.23
2023-05-04T21:16:18.505Z,21.60
2023-05-04T21:18:45.483Z,22.23
2023-05-04T21:21:12.716Z,21.80
2023-05-04T21:23:39.754Z,25.27
2023-05-04T21:26:06.979Z,23.77
2023-05-04T21:28:33.828Z,26.57
2023-05-04T21:31:01.040Z,25.40
2023-05-04T21:33:27.870Z,24.97
2023-05-04T21:35:55.181Z,23.87
2023-05-04T21:38:22.368Z,23.00
2023-05-04T21:40:49.753Z,23.20
2023-05-04T21:43:16.683Z,23.03
2023-05-04T21:45:43.921Z,22.83
2023-05-04T21:48:10.803Z,23.17
2023-05-04T21:50:38.068Z,23.67
2023-05-04T21:53:05.180Z,22.27
2023-05-04T21:55:32.416Z,22.37
2023-05-04T21:57:59.300Z,23.20
2023-05-04T22:00:26.678Z,19.70
2023-05-04T22:02:55.073Z,20.57
2023-05-04T22:05:22.763Z,19.08
2023-05-04T22:07:50.413Z,19.13
2023-05-04T22:10:18.224Z,18.60
2023-05-04T22:12:45.114Z,17.90
2023-05-04T22:15:12.369Z,18.70
2023-05-04T22:17:39.367Z,19.93
2023-05-04T22:20:07.569Z,18.90
2023-05-04T22:22:35.781Z,18.63
2023-05-04T22:25:03.385Z,17.17
2023-05-04T22:27:30.523Z,17.23
2023-05-04T22:29:57.680Z,18.20
2023-05-04T22:32:24.499Z,18.03
2023-05-04T22:34:51.638Z,19.07
2023-05-04T22:37:18.464Z,19.37
2023-05-04T22:39:45.673Z,18.43
2023-05-04T22:42:12.591Z,19.80
2023-05-04T22:44:39.748Z,18.13
2023-05-04T22:47:06.577Z,16.60
2023-05-04T22:49:33.788Z,17.17
2023-05-04T22:52:00.938Z,17.50
2023-05-04T22:54:28.183Z,17.77
2023-05-04T22:56:55.046Z,19.43
2023-05-04T22:59:22.256Z,16.77
2023-05-04T23:01:50.254Z,17.73
2023-05-04T23:04:17.711Z,18.52
2023-05-04T23:06:44.559Z,19.60
2023-05-04T23:09:12.577Z,17.50
2023-05-04T23:11:40.616Z,18.93
2023-05-04T23:14:07.800Z,17.33
2023-05-04T23:16:34.759Z,16.00
2023-05-04T23:19:02.058Z,18.60
2023-05-04T23:21:29.037Z,16.70
2023-05-04T23:23:56.269Z,17.13
2023-05-04T23:26:23.777Z,17.83
2023-05-04T23:28:51.179Z,17.43
2023-05-04T23:31:18.560Z,16.67
2023-05-04T23:33:45.773Z,18.47
2023-05-04T23:36:12.612Z,16.93
2023-05-04T23:38:39.755Z,16.20
2023-05-04T23:41:06.680Z,17.30
2023-05-04T23:43:33.993Z,18.57
2023-05-04T23:46:02.367Z,18.13
2023-05-04T23:48:30.722Z,19.80
2023-05-04T23:50:59.014Z,17.90
2023-05-04T23:53:26.496Z,19.15
2023-05-04T23:55:58.181Z,19.07
2023-05-04T23:58:26.139Z,17.63
